Flight Track Log - Related Links

Times and Time Zones

All times are in EDT time to prevent confusion due to time zone crossing. See the EJA941 flight status page for this flight to view local times or setup timezone preferences in your user account.

Time Position Orientation Groundspeed Altitude Reporting Facility
EDT Latitude Longitude Course Direction KTS MPH feet Rate Location/Type
Sat 04:39:08 PM 40.3739 -79.9764 50° Northeast 187 215 3,000  Level Cleveland Center
Sat 04:40:09 PM 40.4322 -79.9636 North 220 253 5,600 2,634 Climbing Cleveland Center
Sat 04:41:11 PM 40.4994 -79.9408 14° North 249 287 8,400 2,634 Climbing Cleveland Center
Sat 04:42:12 PM 40.5950 -79.9081 15° North 297 342 11,000 2,146 Climbing Cleveland Center
Sat 04:43:14 PM 40.6878 -79.8753 15° North 341 392 12,800 1,805 Climbing Cleveland Center
Sat 04:44:00 PM 40.7407 -79.2750 50° Northeast  Level FlightAware Approximate
Sat 04:44:15 PM 40.7864 -79.8439 14° North 361 415 14,700  Level Cleveland Center
Sat 04:45:17 PM 40.8881 -79.8089 15° North 376 433 16,700 1,805 Climbing Cleveland Center
Sat 04:46:18 PM 40.9914 -79.7744 14° North 381 438 18,400 1,561 Climbing Cleveland Center
Sat 04:47:20 PM 41.0983 -79.7392 14° North 393 452 19,900 1,512 Climbing Cleveland Center
Sat 04:48:21 PM 41.2089 -79.6411 34° Northeast 426 490 21,500 1,377 Climbing Cleveland Center
Sat 04:49:22 PM 41.2389 -79.5117 73° East 440 506 22,700 1,415 Climbing Cleveland Center
Sat 04:50:24 PM 41.2753 -79.3153 76° East 456 525 24,400 1,366 Climbing Cleveland Center
Sat 04:51:25 PM 41.3053 -79.1547 76° East 467 537 25,500 1,122 Climbing Cleveland Center
Sat 04:52:27 PM 41.3369 -78.9803 76° East 484 557 26,700 732 Climbing Cleveland Center
Sat 04:53:28 PM 41.3692 -78.7925 77° East 494 568 27,000 148 Climbing Cleveland Center
Sat 04:54:29 PM 41.4019 -78.6128 76° East 515 593 27,000  Level Cleveland Center
Sat 04:55:31 PM 41.4350 -78.4208 77° East 527 606 27,000  Level Cleveland Center
Sat 04:56:32 PM 41.4689 -78.2253 77° East 537 618 27,000  Level Cleveland Center
Sat 04:57:12 PM 41.4942 -78.0833 77° East 556 640 27,000  Level New York Center
Sat 04:58:12 PM 41.5369 -77.8939 73° East 556 640 27,000  Level New York Center
Sat 04:59:12 PM 41.5997 -77.7117 65° Northeast 545 627 27,000  Level New York Center
Sat 05:00:12 PM 41.6603 -77.5292 66° East 539 620 27,000  Level New York Center
Sat 05:01:12 PM 41.6917 -77.3406 77° East 534 615 27,000 -450 Level New York Center
Sat 05:02:12 PM 41.6714 -77.1386 98° East 525 604 26,100 -1,050 Descending New York Center
Sat 05:03:12 PM 41.6325 -76.9294 104° East 525 604 24,900 -1,050 Descending New York Center
Sat 05:04:12 PM 41.5742 -76.7661 115° Southeast 520 598 24,000 -450 Descending New York Center
Sat 05:05:12 PM 41.5194 -76.5700 110° East 520 598 24,000  Level New York Center
Sat 05:06:12 PM 41.4697 -76.3883 110° East 520 598 24,000 -400 Level New York Center
Sat 05:07:12 PM 41.4200 -76.2072 110° East 520 598 23,200 -850 Descending New York Center
Sat 05:08:12 PM 41.3728 -76.0486 112° Southeast 520 598 22,300 -600 Descending New York Center
Sat 05:09:12 PM 41.3242 -75.8761 111° Southeast 504 580 22,000 -1,400 Descending New York Center
Sat 05:10:12 PM 41.2772 -75.7069 110° East 504 580 19,500 -2,750 Descending New York Center
Sat 05:11:12 PM 41.2253 -75.5489 114° Southeast 478 550 16,500 -2,700 Descending New York Center
Sat 05:12:12 PM 41.1806 -75.4161 114° Southeast 423 487 14,100 -2,450 Descending New York Center
Sat 05:13:12 PM 41.1378 -75.2864 114° Southeast 367 422 11,600 -2,250 Descending New York Center
Sat 05:14:12 PM 41.1022 -75.1794 114° Southeast 324 373 9,600 -1,900 Descending New York Center
Sat 05:15:12 PM 41.0683 -75.0781 114° Southeast 312 359 7,800 -1,750 Descending New York Center
Sat 05:16:12 PM 41.0469 -74.9831 107° East 301 346 6,100 -900 Descending New York Center
Sat 05:17:12 PM 41.0322 -74.8639 99° East 291 335 6,000 -550 Descending New York Center
Sat 05:18:12 PM 41.0169 -74.7642 101° East 291 335 5,000 -1,000 Descending New York Center
Sat 05:19:12 PM 41.0056 -74.6728 99° East 280 322 4,000 -500 Descending New York Center
Sat 05:20:12 PM 40.9922 -74.5647 99° East 275 316 4,000 -250 Level New York Center
Sat 05:21:12 PM 40.9825 -74.4789 99° East 275 316 3,500 -500 Descending New York Center
Sat 05:22:12 PM 40.9692 -74.3739 100° East 275 316 3,000 -319 Descending New York Center
Sat 05:22:46 PM 40.9667 -74.3167 93° East 272 313 3,000 -126 Level New York TRACON
Sat 05:23:47 PM 40.9500 -74.2167 102° East 262 302 2,800 -550 Descending New York TRACON
Sat 05:24:46 PM 40.9333 -74.1500 108° East 217 250 1,900 -650 Descending New York TRACON
Sat 05:25:47 PM 40.9333 -74.0833 90° East 177 204 1,500 -550 Descending New York TRACON
Sat 05:26:46 PM 40.9000 -74.0500 143° Southeast 134 154 800 -712 Descending New York TRACON
Sat 05:30:00 PM 40.8500 -74.0500 101° East  Level FlightAware Approximate

Login

Don't have an account? Register now (free) for customized features, flight alerts, and more!